createdAt,value
2019-02-14T00:00:08.757Z,27.07
2019-02-14T00:02:37.152Z,27.20
2019-02-14T00:05:05.838Z,27.57
2019-02-14T00:07:34.243Z,26.43
2019-02-14T00:10:02.826Z,28.60
2019-02-14T00:12:31.310Z,27.67
2019-02-14T00:14:59.757Z,28.98
2019-02-14T00:17:28.421Z,27.83
2019-02-14T00:19:56.825Z,26.13
2019-02-14T00:22:25.250Z,27.10
2019-02-14T00:24:53.688Z,28.83
2019-02-14T00:27:22.116Z,27.13
2019-02-14T00:29:50.601Z,26.93
2019-02-14T00:32:19.129Z,28.00
2019-02-14T00:34:47.524Z,27.87
2019-02-14T00:37:15.944Z,28.20
2019-02-14T00:39:44.372Z,28.07
2019-02-14T00:42:12.779Z,29.30
2019-02-14T00:44:41.208Z,27.57
2019-02-14T00:47:09.617Z,29.40
2019-02-14T00:49:38.071Z,28.83
2019-02-14T00:52:06.471Z,29.50
2019-02-14T00:54:34.882Z,28.40
2019-02-14T00:57:03.320Z,29.30
2019-02-14T00:59:31.766Z,30.77
2019-02-14T01:02:00.165Z,29.43
2019-02-14T01:04:28.601Z,29.80
2019-02-14T01:06:57.025Z,29.93
2019-02-14T01:09:25.505Z,30.90
2019-02-14T01:11:53.989Z,29.63
2019-02-14T01:14:22.396Z,30.40
2019-02-14T01:16:50.881Z,30.17
2019-02-14T01:19:19.299Z,31.07
2019-02-14T01:21:47.727Z,31.17
2019-02-14T01:24:16.130Z,30.07
2019-02-14T01:26:44.562Z,32.03
2019-02-14T01:29:12.989Z,31.80
2019-02-14T01:31:41.406Z,32.83
2019-02-14T01:34:10.084Z,33.20
2019-02-14T01:36:38.509Z,32.83
2019-02-14T01:39:06.984Z,33.93
2019-02-14T01:41:35.418Z,33.70
2019-02-14T01:44:03.829Z,32.77
2019-02-14T01:46:32.261Z,32.77
2019-02-14T01:49:00.686Z,33.87
2019-02-14T01:51:29.114Z,34.30
2019-02-14T01:53:57.541Z,33.17
2019-02-14T01:56:25.948Z,33.53
2019-02-14T01:58:54.397Z,34.20
2019-02-14T02:01:22.891Z,33.93
2019-02-14T02:03:51.317Z,32.60
2019-02-14T02:06:19.740Z,32.33
2019-02-14T02:08:48.258Z,32.17
2019-02-14T02:11:16.669Z,33.47
2019-02-14T02:13:45.334Z,33.60
2019-02-14T02:16:13.747Z,35.23
2019-02-14T02:18:42.181Z,35.27
2019-02-14T02:21:10.777Z,34.03
2019-02-14T02:23:39.188Z,35.10
2019-02-14T02:26:07.624Z,35.53
2019-02-14T02:28:36.028Z,36.03
2019-02-14T02:31:04.706Z,36.20
2019-02-14T02:33:33.141Z,34.67
2019-02-14T02:36:01.553Z,36.07
2019-02-14T02:38:29.989Z,35.77
2019-02-14T02:40:58.407Z,36.67
2019-02-14T02:43:26.839Z,35.77
2019-02-14T02:45:55.272Z,35.40
2019-02-14T02:48:23.709Z,36.53
2019-02-14T02:50:52.108Z,36.47
2019-02-14T02:53:20.558Z,36.20
2019-02-14T02:55:48.982Z,37.57
2019-02-14T02:58:17.389Z,36.20
2019-02-14T03:00:45.820Z,37.50
2019-02-14T03:03:14.568Z,39.17
2019-02-14T03:05:43.000Z,37.77
2019-02-14T03:08:11.409Z,37.07
2019-02-14T03:10:39.867Z,37.03
2019-02-14T03:13:08.292Z,39.18
2019-02-14T03:15:36.728Z,39.00
2019-02-14T03:18:05.241Z,37.40
2019-02-14T03:20:33.704Z,37.47
2019-02-14T03:23:02.148Z,38.67
2019-02-14T03:25:30.565Z,39.57
2019-02-14T03:27:59.021Z,38.27
2019-02-14T03:30:27.443Z,38.97
2019-02-14T03:32:55.896Z,37.30
2019-02-14T03:35:24.319Z,38.70
2019-02-14T03:37:52.754Z,39.30
2019-02-14T03:40:21.195Z,37.87
2019-02-14T03:42:49.616Z,38.80
2019-02-14T03:45:20.067Z,37.90
2019-02-14T03:47:48.524Z,39.47
2019-02-14T03:50:17.211Z,38.67
2019-02-14T03:52:45.662Z,38.23
2019-02-14T03:55:14.078Z,40.00
2019-02-14T03:57:42.535Z,38.83
2019-02-14T04:00:16.796Z,39.33
2019-02-14T04:02:45.259Z,39.00
2019-02-14T04:05:13.759Z,39.50
2019-02-14T04:07:42.196Z,38.90
2019-02-14T04:10:13.240Z,39.88
2019-02-14T04:12:41.687Z,37.63
2019-02-14T04:15:19.287Z,38.83
2019-02-14T04:17:47.738Z,38.93
2019-02-14T04:20:16.199Z,39.23
2019-02-14T04:22:44.627Z,39.70
2019-02-14T04:25:13.071Z,39.63
2019-02-14T04:27:41.519Z,38.67
2019-02-14T04:30:11.980Z,39.77
2019-02-14T04:32:40.432Z,39.33
2019-02-14T04:35:08.930Z,40.13
2019-02-14T04:37:37.376Z,39.23
2019-02-14T04:40:11.108Z,41.43
2019-02-14T04:42:39.638Z,40.67
2019-02-14T04:45:09.400Z,43.17
2019-02-14T04:47:37.823Z,40.75
2019-02-14T04:50:08.617Z,40.73
2019-02-14T04:52:37.083Z,40.73
2019-02-14T04:55:08.167Z,40.60
2019-02-14T04:57:36.597Z,42.07
2019-02-14T05:00:08.513Z,40.27
2019-02-14T05:02:36.955Z,41.67
2019-02-14T05:05:07.090Z,39.73
2019-02-14T05:07:35.832Z,40.63
2019-02-14T05:10:06.123Z,40.87
2019-02-14T05:12:34.563Z,40.77
2019-02-14T05:15:03.093Z,39.37
2019-02-14T05:17:31.524Z,40.37
2019-02-14T05:19:59.998Z,41.53
2019-02-14T05:22:28.489Z,43.33
2019-02-14T05:24:56.945Z,40.10
2019-02-14T05:27:25.373Z,38.87
2019-02-14T05:29:53.836Z,41.73
2019-02-14T05:32:22.278Z,39.93
2019-02-14T05:34:50.840Z,40.77
2019-02-14T05:37:19.280Z,40.40
2019-02-14T05:39:47.732Z,40.07
2019-02-14T05:42:16.163Z,41.27
2019-02-14T05:44:44.837Z,41.20
2019-02-14T05:47:13.300Z,41.77
2019-02-14T05:49:41.976Z,38.90
2019-02-14T05:52:10.471Z,40.07
2019-02-14T05:54:38.928Z,41.27
2019-02-14T05:57:07.367Z,40.27
2019-02-14T05:59:35.808Z,39.97
2019-02-14T06:02:04.265Z,41.07
2019-02-14T06:04:32.707Z,40.47
2019-02-14T06:07:01.459Z,42.73
2019-02-14T06:09:29.968Z,40.37
2019-02-14T06:11:58.427Z,41.17
2019-02-14T06:14:26.849Z,40.83
2019-02-14T06:16:55.297Z,40.87
2019-02-14T06:19:23.763Z,41.47
2019-02-14T06:21:52.192Z,39.83
2019-02-14T06:24:20.919Z,41.70
2019-02-14T06:26:49.344Z,38.43
2019-02-14T06:29:17.780Z,41.73
2019-02-14T06:31:46.219Z,40.83
2019-02-14T06:34:14.652Z,39.57
2019-02-14T06:36:43.107Z,41.33
2019-02-14T06:39:11.544Z,41.17
2019-02-14T06:41:39.985Z,40.83
2019-02-14T06:44:08.408Z,40.27
2019-02-14T06:46:36.912Z,41.47
2019-02-14T06:49:05.374Z,39.60
2019-02-14T06:51:33.795Z,41.37
2019-02-14T06:54:02.248Z,40.03
2019-02-14T06:56:31.002Z,41.07
2019-02-14T06:58:59.470Z,40.20
2019-02-14T07:01:27.896Z,41.37
2019-02-14T07:03:56.581Z,43.27
2019-02-14T07:06:25.044Z,43.27
2019-02-14T07:08:53.495Z,42.63
2019-02-14T07:11:21.979Z,40.67
2019-02-14T07:13:50.404Z,42.10
2019-02-14T07:16:18.852Z,40.93
2019-02-14T07:18:47.276Z,41.27
2019-02-14T07:21:15.766Z,41.87
2019-02-14T07:23:44.269Z,41.07
2019-02-14T07:26:12.722Z,40.77
2019-02-14T07:28:41.155Z,41.33
2019-02-14T07:31:09.611Z,40.03
2019-02-14T07:33:38.072Z,40.97
2019-02-14T07:36:06.575Z,40.90
2019-02-14T07:38:34.995Z,41.07
2019-02-14T07:41:03.455Z,39.07
2019-02-14T07:43:31.875Z,39.37
2019-02-14T07:46:00.398Z,40.37
2019-02-14T07:48:28.856Z,40.03
2019-02-14T07:50:57.279Z,40.67
2019-02-14T07:53:25.720Z,41.63
2019-02-14T07:55:54.149Z,40.57
2019-02-14T07:58:22.612Z,41.83
2019-02-14T08:00:51.054Z,40.37
2019-02-14T08:03:19.501Z,40.37
2019-02-14T08:05:47.936Z,41.43
2019-02-14T08:08:16.365Z,40.43
2019-02-14T08:10:44.842Z,41.83
2019-02-14T08:13:13.267Z,36.90
2019-02-14T08:15:41.724Z,39.77
2019-02-14T08:18:10.182Z,39.23
2019-02-14T08:20:38.681Z,39.80
2019-02-14T08:23:07.140Z,39.47
2019-02-14T08:25:35.563Z,38.57
2019-02-14T08:28:04.043Z,39.80
2019-02-14T08:30:32.586Z,40.23
2019-02-14T08:33:01.061Z,38.60
2019-02-14T08:35:29.540Z,38.30
2019-02-14T08:37:58.032Z,39.23
2019-02-14T08:40:33.549Z,41.93
2019-02-14T08:43:01.961Z,40.10
2019-02-14T08:45:30.420Z,38.80
2019-02-14T08:47:58.886Z,40.77
2019-02-14T08:50:27.418Z,39.67
2019-02-14T08:52:55.934Z,39.50
2019-02-14T08:55:24.360Z,39.17
2019-02-14T08:57:52.853Z,39.23
2019-02-14T09:00:21.348Z,40.77
2019-02-14T09:02:49.775Z,38.93
2019-02-14T09:05:18.268Z,39.57
2019-02-14T09:07:54.116Z,38.37
2019-02-14T09:10:17.995Z,37.43
2019-02-14T09:12:46.526Z,37.13
2019-02-14T09:15:15.479Z,37.97
2019-02-14T09:17:43.911Z,37.93
2019-02-14T09:20:15.267Z,38.10
2019-02-14T09:22:43.758Z,38.80
2019-02-14T09:25:12.411Z,37.97
2019-02-14T09:27:40.834Z,36.93
2019-02-14T09:30:11.627Z,37.13
2019-02-14T09:32:40.257Z,36.57
2019-02-14T09:35:09.969Z,36.70
2019-02-14T09:37:38.476Z,38.13
2019-02-14T09:40:12.269Z,37.10
2019-02-14T09:42:40.949Z,36.83
2019-02-14T09:45:13.828Z,37.17
2019-02-14T09:47:42.293Z,36.33
2019-02-14T09:50:15.317Z,34.47
2019-02-14T09:52:43.877Z,36.63
2019-02-14T09:55:14.143Z,35.60
2019-02-14T09:57:42.641Z,36.40
2019-02-14T10:00:13.829Z,36.10
2019-02-14T10:02:42.355Z,35.43
2019-02-14T10:05:11.129Z,34.37
2019-02-14T10:07:39.578Z,35.57
2019-02-14T10:10:11.431Z,35.20
2019-02-14T10:12:39.888Z,34.77
2019-02-14T10:15:09.920Z,37.20
2019-02-14T10:17:38.436Z,35.60
2019-02-14T10:20:12.468Z,35.47
2019-02-14T10:22:40.919Z,33.70
2019-02-14T10:25:09.876Z,34.70
2019-02-14T10:27:38.327Z,35.60
2019-02-14T10:30:14.873Z,34.97
2019-02-14T10:32:43.320Z,34.53
2019-02-14T10:35:11.752Z,33.97
2019-02-14T10:37:40.203Z,34.73
2019-02-14T10:40:11.368Z,35.13
2019-02-14T10:42:39.859Z,34.37
2019-02-14T10:45:11.333Z,33.03
2019-02-14T10:47:39.868Z,33.47
2019-02-14T10:50:10.045Z,34.17
2019-02-14T10:52:38.502Z,34.30
2019-02-14T10:55:12.309Z,32.37
2019-02-14T10:57:40.792Z,32.10
2019-02-14T11:00:17.619Z,32.37
2019-02-14T11:02:46.526Z,30.87
2019-02-14T11:05:15.692Z,32.80
2019-02-14T11:07:44.165Z,33.80
2019-02-14T11:10:14.178Z,31.83
2019-02-14T11:12:42.745Z,32.10
2019-02-14T11:15:13.986Z,33.57
2019-02-14T11:17:42.450Z,33.27
2019-02-14T11:20:12.954Z,35.80
2019-02-14T11:22:41.416Z,36.37
2019-02-14T11:25:12.616Z,32.40
2019-02-14T11:27:41.050Z,33.93
2019-02-14T11:30:14.324Z,32.33
2019-02-14T11:32:42.824Z,29.57
2019-02-14T11:35:11.582Z,31.63
2019-02-14T11:37:40.141Z,31.23
2019-02-14T11:40:11.108Z,29.67
2019-02-14T11:42:39.545Z,33.47
2019-02-14T11:45:13.600Z,28.20
2019-02-14T11:47:42.048Z,30.20
2019-02-14T11:50:11.647Z,29.10
2019-02-14T11:52:40.252Z,27.80
2019-02-14T11:55:10.250Z,27.53
2019-02-14T11:57:38.781Z,25.73
2019-02-14T12:00:10.351Z,25.97
2019-02-14T12:02:38.903Z,26.17
2019-02-14T12:05:07.615Z,26.27
2019-02-14T12:07:36.083Z,24.30
2019-02-14T12:10:13.223Z,25.63
2019-02-14T12:12:37.163Z,26.03
2019-02-14T12:15:08.454Z,26.63
2019-02-14T12:17:36.902Z,25.47
2019-02-14T12:20:12.472Z,26.73
2019-02-14T12:22:46.314Z,28.17
2019-02-14T12:25:11.140Z,25.83
2019-02-14T12:27:39.608Z,25.80
2019-02-14T12:30:11.018Z,22.40
2019-02-14T12:32:39.437Z,22.03
2019-02-14T12:35:07.909Z,22.20
2019-02-14T12:37:36.369Z,20.40
2019-02-14T12:40:07.356Z,21.20
2019-02-14T12:42:35.804Z,20.20
2019-02-14T12:45:06.492Z,20.30
2019-02-14T12:47:34.949Z,20.40
2019-02-14T12:50:03.589Z,20.00
2019-02-14T12:52:32.015Z,20.47
2019-02-14T12:55:00.444Z,19.07
2019-02-14T12:57:28.905Z,18.70
2019-02-14T12:59:57.369Z,18.87
2019-02-14T13:02:25.820Z,18.80
2019-02-14T13:04:54.264Z,18.37
2019-02-14T13:07:22.993Z,18.53
2019-02-14T13:09:51.466Z,18.40
2019-02-14T13:12:19.912Z,14.87
2019-02-14T13:14:48.385Z,15.73
2019-02-14T13:17:16.855Z,15.33
2019-02-14T13:19:45.279Z,14.63
2019-02-14T13:22:13.737Z,15.93
2019-02-14T13:24:46.086Z,16.40
2019-02-14T13:27:14.731Z,14.23
2019-02-14T13:29:43.236Z,14.87
2019-02-14T13:32:13.610Z,13.95
2019-02-14T13:34:41.966Z,13.30
2019-02-14T13:37:10.408Z,13.60
2019-02-14T13:39:38.956Z,13.63
2019-02-14T13:42:07.504Z,13.90
2019-02-14T13:44:35.995Z,13.90
2019-02-14T13:47:04.525Z,14.33
2019-02-14T13:49:33.004Z,13.63
2019-02-14T13:52:01.538Z,13.17
2019-02-14T13:54:30.120Z,11.87
2019-02-14T13:56:58.688Z,14.00
2019-02-14T13:59:27.131Z,12.57
2019-02-14T14:01:55.847Z,12.37
2019-02-14T14:04:24.405Z,12.30
2019-02-14T14:06:52.863Z,12.07
2019-02-14T14:09:21.333Z,11.57
2019-02-14T14:11:49.799Z,11.97
2019-02-14T14:14:18.236Z,12.90
2019-02-14T14:16:46.681Z,12.03
2019-02-14T14:19:15.145Z,11.93
2019-02-14T14:21:43.619Z,12.90
2019-02-14T14:24:12.106Z,13.20
2019-02-14T14:26:40.662Z,13.20
2019-02-14T14:29:09.209Z,12.47
2019-02-14T14:31:37.662Z,12.73
2019-02-14T14:34:06.207Z,13.50
2019-02-14T14:36:34.680Z,11.83
2019-02-14T14:39:04.953Z,12.50
2019-02-14T14:41:33.527Z,12.10
2019-02-14T14:44:03.615Z,12.10
2019-02-14T14:46:33.083Z,11.40
2019-02-14T14:49:01.545Z,10.80
2019-02-14T14:51:30.429Z,11.57
2019-02-14T14:53:58.855Z,11.20
2019-02-14T14:56:27.373Z,12.27
2019-02-14T14:58:55.814Z,11.37
2019-02-14T15:01:24.546Z,10.53
2019-02-14T15:03:52.977Z,11.23
2019-02-14T15:06:21.443Z,11.33
2019-02-14T15:08:49.878Z,12.13
2019-02-14T15:11:18.460Z,11.07
2019-02-14T15:13:46.941Z,10.63
2019-02-14T15:16:15.377Z,10.67
2019-02-14T15:18:43.837Z,10.77
2019-02-14T15:21:12.296Z,10.72
2019-02-14T15:23:40.777Z,10.87
2019-02-14T15:26:09.244Z,11.03
2019-02-14T15:28:37.705Z,10.60
2019-02-14T15:31:06.158Z,11.23
2019-02-14T15:33:34.604Z,10.10
2019-02-14T15:36:03.104Z,11.50
2019-02-14T15:38:32.259Z,14.23
2019-02-14T15:41:01.724Z,13.07
2019-02-14T15:43:30.252Z,11.97
2019-02-14T15:45:58.691Z,12.67
2019-02-14T15:48:27.216Z,13.47
2019-02-14T15:50:56.691Z,12.40
2019-02-14T15:53:25.303Z,10.87
2019-02-14T15:55:53.725Z,10.70
2019-02-14T15:58:22.313Z,11.40
2019-02-14T16:00:51.779Z,11.63
2019-02-14T16:03:21.044Z,11.40
2019-02-14T16:05:49.493Z,12.30
2019-02-14T16:08:19.638Z,11.87
2019-02-14T16:10:49.678Z,11.63
2019-02-14T16:13:18.258Z,11.90
2019-02-14T16:15:46.684Z,12.17
2019-02-14T16:18:15.188Z,11.77
2019-02-14T16:20:44.320Z,12.37
2019-02-14T16:23:12.832Z,12.90
2019-02-14T16:25:41.311Z,11.80
2019-02-14T16:28:11.514Z,12.37
2019-02-14T16:30:39.883Z,12.83
2019-02-14T16:33:08.457Z,12.80
2019-02-14T16:35:37.167Z,13.00
2019-02-14T16:38:29.845Z,12.97
2019-02-14T16:40:58.279Z,12.53
2019-02-14T16:43:26.743Z,12.63
2019-02-14T16:45:55.159Z,12.50
2019-02-14T16:48:23.599Z,13.53
2019-02-14T16:50:52.030Z,13.20
2019-02-14T16:53:20.764Z,13.57
2019-02-14T16:55:49.223Z,13.50
2019-02-14T16:58:17.640Z,13.57
2019-02-14T17:00:46.060Z,13.27
2019-02-14T17:03:14.763Z,13.57
2019-02-14T17:05:43.218Z,13.23
2019-02-14T17:08:11.909Z,13.43
2019-02-14T17:10:40.340Z,13.57
2019-02-14T17:13:08.867Z,14.50
2019-02-14T17:15:37.280Z,14.47
2019-02-14T17:18:05.725Z,13.77
2019-02-14T17:20:34.193Z,14.90
2019-02-14T17:23:02.664Z,13.70
2019-02-14T17:25:31.153Z,14.60
2019-02-14T17:27:59.608Z,14.87
2019-02-14T17:30:28.296Z,14.80
2019-02-14T17:32:56.988Z,14.13
2019-02-14T17:35:25.460Z,15.20
2019-02-14T17:37:53.946Z,15.03
2019-02-14T17:40:22.395Z,15.03
2019-02-14T17:42:52.546Z,14.47
2019-02-14T17:45:21.105Z,13.73
2019-02-14T17:47:49.588Z,14.47
2019-02-14T17:50:18.004Z,15.97
2019-02-14T17:52:46.454Z,15.03
2019-02-14T17:55:14.919Z,15.03
2019-02-14T17:57:43.460Z,16.00
2019-02-14T18:00:13.023Z,15.40
2019-02-14T18:02:41.496Z,14.83
2019-02-14T18:05:10.111Z,15.10
2019-02-14T18:07:38.529Z,16.97
2019-02-14T18:10:10.125Z,16.53
2019-02-14T18:12:38.638Z,17.40
2019-02-14T18:44:17.301Z,15.23
2019-02-14T18:46:45.779Z,15.97
2019-02-14T18:49:14.220Z,17.10
2019-02-14T18:51:42.671Z,16.03
2019-02-14T18:54:11.197Z,16.73
2019-02-14T18:56:39.628Z,16.40
2019-02-14T18:59:08.086Z,16.70
2019-02-14T19:01:36.781Z,16.93
2019-02-14T19:04:05.280Z,17.07
2019-02-14T19:06:33.744Z,17.63
2019-02-14T19:09:02.209Z,16.97
2019-02-14T19:11:30.680Z,17.43
2019-02-14T19:13:59.208Z,17.63
2019-02-14T19:16:27.736Z,18.30
2019-02-14T19:18:56.210Z,18.33
2019-02-14T19:21:24.669Z,18.10
2019-02-14T19:23:53.109Z,17.37
2019-02-14T19:26:21.532Z,18.30
2019-02-14T19:28:49.987Z,18.40
2019-02-14T19:31:24.317Z,19.17
2019-02-14T19:33:52.749Z,19.70
2019-02-14T19:36:21.176Z,19.83
2019-02-14T19:38:49.636Z,19.33
2019-02-14T19:41:25.075Z,19.23
2019-02-14T19:43:48.246Z,19.33
2019-02-14T19:46:16.697Z,18.43
2019-02-14T19:48:45.254Z,18.13
2019-02-14T19:51:13.717Z,18.80
2019-02-14T19:53:42.139Z,17.40
2019-02-14T19:56:10.555Z,18.90
2019-02-14T19:58:39.069Z,18.73
2019-02-14T20:01:07.580Z,17.83
2019-02-14T20:03:36.053Z,19.63
2019-02-14T20:06:04.593Z,19.57
2019-02-14T20:08:33.065Z,19.03
2019-02-14T20:11:02.238Z,18.87
2019-02-14T20:13:30.737Z,19.20
2019-02-14T20:15:59.208Z,19.73
2019-02-14T20:18:27.655Z,17.63
2019-02-14T20:20:56.115Z,18.50
2019-02-14T20:23:24.649Z,18.93
2019-02-14T20:25:53.159Z,18.67
2019-02-14T20:28:21.640Z,19.60
2019-02-14T20:30:50.078Z,19.73
2019-02-14T20:33:18.527Z,20.00
2019-02-14T20:35:46.968Z,19.83
2019-02-14T20:38:15.483Z,20.20
2019-02-14T20:40:43.954Z,20.13
2019-02-14T20:43:12.469Z,19.90
2019-02-14T20:45:40.919Z,21.50
2019-02-14T20:48:09.415Z,21.87
2019-02-14T20:50:37.996Z,21.47
2019-02-14T20:53:06.492Z,21.33
2019-02-14T20:55:34.944Z,20.80
2019-02-14T20:58:03.644Z,21.40
2019-02-14T21:00:33.799Z,20.80
2019-02-14T21:03:02.383Z,21.77
2019-02-14T21:05:31.024Z,22.17
2019-02-14T21:07:59.482Z,21.93
2019-02-14T21:10:27.908Z,21.57
2019-02-14T21:12:56.352Z,20.80
2019-02-14T21:15:24.778Z,21.50
2019-02-14T21:17:53.312Z,19.50
2019-02-14T21:20:21.864Z,21.10
2019-02-14T21:22:50.337Z,20.13
2019-02-14T21:25:22.501Z,20.70
2019-02-14T21:27:49.078Z,21.10
2019-02-14T21:30:18.981Z,22.27
2019-02-14T21:32:47.659Z,21.17
2019-02-14T21:35:16.174Z,22.10
2019-02-14T21:37:44.696Z,20.77
2019-02-14T21:40:15.180Z,21.70
2019-02-14T21:42:43.636Z,21.90
2019-02-14T21:45:14.590Z,21.07
2019-02-14T21:47:43.056Z,22.00
2019-02-14T21:50:12.302Z,21.70
2019-02-14T21:52:40.838Z,21.30
2019-02-14T21:55:13.145Z,20.50
2019-02-14T21:57:41.679Z,20.93
2019-02-14T22:00:24.757Z,20.97
2019-02-14T22:02:53.221Z,21.70
2019-02-14T22:05:25.146Z,20.63
2019-02-14T22:07:51.970Z,20.50
2019-02-14T22:10:20.403Z,20.77
2019-02-14T22:12:48.945Z,20.97
2019-02-14T22:15:28.629Z,20.90
2019-02-14T22:17:57.142Z,21.10
2019-02-14T22:20:25.599Z,21.13
2019-02-14T22:22:54.032Z,21.40
2019-02-14T22:25:22.480Z,21.83
2019-02-14T22:27:51.013Z,21.40
2019-02-14T22:30:19.436Z,20.27
2019-02-14T22:32:48.153Z,20.63
2019-02-14T22:35:16.585Z,20.43
2019-02-14T22:37:45.014Z,21.03
2019-02-14T22:40:14.320Z,22.27
2019-02-14T22:42:47.199Z,21.87
2019-02-14T22:45:14.128Z,21.00
2019-02-14T22:47:43.620Z,21.60
2019-02-14T22:50:12.995Z,22.47
2019-02-14T22:52:41.442Z,22.50
2019-02-14T22:55:11.108Z,21.43
2019-02-14T22:57:39.553Z,21.33
2019-02-14T23:00:27.424Z,19.90
2019-02-14T23:02:55.917Z,20.73
2019-02-14T23:05:24.388Z,21.53
2019-02-14T23:07:52.810Z,21.20
2019-02-14T23:10:21.248Z,21.57
2019-02-14T23:12:55.464Z,23.23
2019-02-14T23:15:19.973Z,20.63
2019-02-14T23:17:48.601Z,21.03
2019-02-14T23:20:17.075Z,20.70
2019-02-14T23:22:45.504Z,20.27
2019-02-14T23:25:13.959Z,20.20
2019-02-14T23:27:42.489Z,21.50
2019-02-14T23:30:12.149Z,20.80
2019-02-14T23:32:40.564Z,21.20
2019-02-14T23:35:09.091Z,20.00
2019-02-14T23:37:37.544Z,21.60
2019-02-14T23:40:07.024Z,21.70
2019-02-14T23:42:35.474Z,21.43
2019-02-14T23:45:05.009Z,20.57
2019-02-14T23:47:33.455Z,20.90
2019-02-14T23:50:01.901Z,20.83
2019-02-14T23:52:30.360Z,21.37
2019-02-14T23:54:58.788Z,20.30
2019-02-14T23:57:27.268Z,20.40
2019-02-14T23:59:55.782Z,20.80
